createdAt,value
2018-11-25T00:01:41.242Z,89.89
2018-11-25T00:04:16.413Z,90.02
2018-11-25T00:06:51.456Z,89.97
2018-11-25T00:09:26.523Z,89.45
2018-11-25T00:12:01.466Z,89.58
2018-11-25T00:14:36.139Z,89.42
2018-11-25T00:17:10.423Z,89.29
2018-11-25T00:19:45.133Z,89.48
2018-11-25T00:22:19.834Z,89.45
2018-11-25T00:24:54.425Z,89.41
2018-11-25T00:27:29.122Z,89.43
2018-11-25T00:30:04.151Z,89.59
2018-11-25T00:32:38.926Z,90.04
2018-11-25T00:35:14.747Z,90.14
2018-11-25T00:37:49.006Z,89.83
2018-11-25T00:40:23.323Z,89.68
2018-11-25T00:42:57.948Z,89.65
2018-11-25T00:45:32.746Z,89.66
2018-11-25T00:48:07.065Z,89.14
2018-11-25T00:50:41.769Z,89.08
2018-11-25T00:53:16.282Z,88.94
2018-11-25T00:55:50.674Z,89.00
2018-11-25T00:58:25.245Z,89.13
2018-11-25T01:00:59.719Z,89.18
2018-11-25T01:03:34.683Z,89.05
2018-11-25T01:06:09.219Z,89.09
2018-11-25T01:08:43.786Z,89.41
2018-11-25T01:11:18.534Z,90.13
2018-11-25T01:13:53.082Z,90.84
2018-11-25T01:16:27.536Z,91.56
2018-11-25T01:19:02.428Z,92.00
2018-11-25T01:21:37.137Z,91.70
2018-11-25T01:24:11.826Z,91.47
2018-11-25T01:26:46.602Z,90.57
2018-11-25T01:29:21.381Z,90.56
2018-11-25T01:31:55.841Z,90.69
2018-11-25T01:34:30.241Z,90.72
2018-11-25T01:37:05.241Z,90.80
2018-11-25T01:39:40.196Z,90.67
2018-11-25T01:42:14.477Z,90.68
2018-11-25T01:44:49.254Z,90.47
2018-11-25T01:47:23.728Z,90.21
2018-11-25T01:49:58.602Z,89.57
2018-11-25T01:52:33.025Z,88.75
2018-11-25T01:55:11.235Z,88.33
2018-11-25T01:57:45.973Z,88.40
2018-11-25T02:00:21.514Z,88.28
2018-11-25T02:02:56.319Z,87.96
2018-11-25T02:05:30.982Z,87.98
2018-11-25T02:08:05.786Z,87.91
2018-11-25T02:10:40.265Z,89.31
2018-11-25T02:13:14.595Z,89.61
2018-11-25T02:15:49.146Z,90.44
2018-11-25T02:18:23.621Z,90.84
2018-11-25T02:20:58.808Z,91.30
2018-11-25T02:23:33.142Z,91.65
2018-11-25T02:26:08.062Z,92.12
2018-11-25T02:28:42.746Z,91.61
2018-11-25T02:31:17.067Z,91.25
2018-11-25T02:33:51.947Z,90.75
2018-11-25T02:36:26.421Z,89.96
2018-11-25T02:39:01.243Z,89.25
2018-11-25T02:41:35.977Z,88.55
2018-11-25T02:44:10.861Z,88.06
2018-11-25T02:46:45.854Z,87.84
2018-11-25T02:49:20.609Z,88.62
2018-11-25T02:51:55.187Z,89.29
2018-11-25T02:54:29.650Z,88.82
2018-11-25T02:57:04.301Z,88.76
2018-11-25T02:59:38.683Z,88.24
2018-11-25T03:02:13.542Z,88.12
2018-11-25T03:04:48.301Z,88.30
2018-11-25T03:07:23.316Z,88.35
2018-11-25T03:09:58.017Z,89.41
2018-11-25T03:12:32.774Z,90.29
2018-11-25T03:15:10.534Z,90.71
2018-11-25T03:17:44.863Z,91.03
2018-11-25T03:20:19.386Z,91.61
2018-11-25T03:22:54.138Z,91.26
2018-11-25T03:25:29.454Z,91.16
2018-11-25T03:28:04.607Z,90.84
2018-11-25T03:30:39.274Z,90.81
2018-11-25T03:33:14.046Z,90.71
2018-11-25T03:35:49.683Z,90.69
2018-11-25T03:38:23.989Z,90.92
2018-11-25T03:40:58.749Z,90.61
2018-11-25T03:43:33.461Z,90.73
2018-11-25T03:46:08.390Z,90.28
2018-11-25T03:48:42.760Z,90.62
2018-11-25T03:51:17.262Z,90.41
2018-11-25T03:53:51.726Z,90.68
2018-11-25T03:56:26.702Z,90.03
2018-11-25T03:59:01.042Z,90.37
2018-11-25T04:01:35.885Z,90.38
2018-11-25T04:04:10.724Z,90.29
2018-11-25T04:06:45.399Z,90.36
2018-11-25T04:09:20.043Z,90.53
2018-11-25T04:11:54.434Z,90.53
2018-11-25T04:14:29.486Z,90.56
2018-11-25T04:17:04.017Z,91.39
2018-11-25T04:19:38.549Z,92.09
2018-11-25T04:22:13.247Z,92.52
2018-11-25T04:24:48.193Z,92.61
2018-11-25T04:27:22.944Z,92.88
2018-11-25T04:29:57.497Z,93.17
2018-11-25T04:32:32.022Z,93.57
2018-11-25T04:35:08.546Z,94.27
2018-11-25T04:37:43.093Z,94.54
2018-11-25T04:40:18.238Z,94.33
2018-11-25T04:42:52.601Z,94.19
2018-11-25T04:45:26.873Z,93.71
2018-11-25T04:48:01.231Z,93.60
2018-11-25T04:50:35.741Z,93.50
2018-11-25T04:53:10.231Z,93.45
2018-11-25T04:55:45.561Z,93.39
2018-11-25T04:58:20.070Z,93.61
2018-11-25T05:00:54.717Z,93.87
2018-11-25T05:03:29.462Z,93.90
2018-11-25T05:06:04.213Z,94.30
2018-11-25T05:08:38.605Z,94.48
2018-11-25T05:11:13.242Z,95.05
2018-11-25T05:13:47.737Z,95.08
2018-11-25T05:16:22.258Z,95.48
2018-11-25T05:18:56.996Z,95.15
2018-11-25T05:21:31.965Z,95.28
2018-11-25T05:24:06.541Z,95.20
2018-11-25T05:26:41.238Z,94.86
2018-11-25T05:29:15.604Z,95.04
2018-11-25T05:31:50.225Z,94.62
2018-11-25T05:34:25.089Z,94.80
2018-11-25T05:36:59.853Z,94.50
2018-11-25T05:39:34.390Z,94.09
2018-11-25T05:42:08.885Z,93.78
2018-11-25T05:44:43.233Z,93.72
2018-11-25T05:47:18.113Z,93.43
2018-11-25T05:49:52.805Z,93.07
2018-11-25T05:52:27.252Z,92.83
2018-11-25T05:55:01.670Z,92.98
2018-11-25T05:57:37.228Z,92.23
2018-11-25T06:00:15.741Z,91.86
2018-11-25T06:02:50.561Z,91.40
2018-11-25T06:05:25.645Z,91.24
2018-11-25T06:08:00.127Z,91.20
2018-11-25T06:10:34.761Z,91.39
2018-11-25T06:13:09.285Z,91.36
2018-11-25T06:15:43.581Z,91.25
2018-11-25T06:18:17.978Z,91.32
2018-11-25T06:20:52.927Z,91.29
2018-11-25T06:23:27.342Z,91.55
2018-11-25T06:26:02.359Z,91.19
2018-11-25T06:28:37.544Z,91.51
2018-11-25T06:31:12.466Z,91.24
2018-11-25T06:33:46.885Z,91.66
2018-11-25T06:36:21.315Z,91.74
2018-11-25T06:38:55.955Z,92.20
2018-11-25T06:41:34.078Z,91.83
2018-11-25T06:44:05.186Z,91.97
2018-11-25T06:46:39.500Z,92.09
2018-11-25T06:49:14.551Z,91.96
2018-11-25T06:51:49.218Z,91.36
2018-11-25T06:54:23.799Z,91.92
2018-11-25T06:56:58.746Z,91.70
2018-11-25T06:59:33.057Z,91.64
2018-11-25T07:02:08.342Z,91.50
2018-11-25T07:04:42.828Z,91.44
2018-11-25T07:07:17.279Z,91.31
2018-11-25T07:09:51.833Z,91.23
2018-11-25T07:12:26.321Z,91.23
2018-11-25T07:15:00.982Z,90.99
2018-11-25T07:17:36.215Z,90.63
2018-11-25T07:20:12.065Z,90.70
2018-11-25T07:22:47.012Z,90.56
2018-11-25T07:25:23.057Z,90.23
2018-11-25T07:27:57.353Z,90.33
2018-11-25T07:30:32.417Z,90.56
2018-11-25T07:33:06.846Z,90.85
2018-11-25T07:35:41.937Z,90.62
2018-11-25T07:38:16.609Z,90.68
2018-11-25T07:40:51.461Z,90.77
2018-11-25T07:43:25.885Z,90.71
2018-11-25T07:46:00.359Z,90.21
2018-11-25T07:48:34.969Z,90.27
2018-11-25T07:51:09.698Z,90.55
2018-11-25T07:53:44.522Z,90.93
2018-11-25T07:56:19.045Z,90.56
2018-11-25T07:58:53.703Z,90.25
2018-11-25T08:01:29.125Z,90.30
2018-11-25T08:04:03.607Z,90.31
2018-11-25T08:06:38.329Z,90.17
2018-11-25T08:09:12.892Z,89.94
2018-11-25T08:11:47.579Z,89.90
2018-11-25T08:14:22.277Z,90.12
2018-11-25T08:16:56.789Z,89.75
2018-11-25T08:19:31.792Z,89.96
2018-11-25T08:22:06.402Z,89.74
2018-11-25T08:24:41.008Z,90.07
2018-11-25T08:27:15.356Z,90.29
2018-11-25T08:29:50.127Z,90.26
2018-11-25T08:32:25.699Z,90.27
2018-11-25T08:35:00.091Z,90.09
2018-11-25T08:37:34.541Z,90.34
2018-11-25T08:40:14.580Z,90.10
2018-11-25T08:42:49.910Z,90.01
2018-11-25T08:45:24.242Z,89.68
2018-11-25T08:47:58.742Z,89.15
2018-11-25T08:50:33.105Z,89.23
2018-11-25T08:53:07.995Z,89.15
2018-11-25T08:55:42.457Z,89.46
2018-11-25T08:58:19.115Z,89.78
2018-11-25T09:00:53.534Z,89.27
2018-11-25T09:03:28.031Z,89.50
2018-11-25T09:06:02.360Z,89.59
2018-11-25T09:08:38.061Z,90.04
2018-11-25T09:11:12.478Z,89.83
2018-11-25T09:13:52.013Z,89.47
2018-11-25T09:16:26.669Z,88.96
2018-11-25T09:19:01.655Z,88.89
2018-11-25T09:21:36.656Z,88.36
2018-11-25T09:24:11.541Z,88.27
2018-11-25T09:26:46.786Z,89.03
2018-11-25T09:29:21.328Z,89.43
2018-11-25T09:31:56.718Z,89.70
2018-11-25T09:34:31.097Z,89.04
2018-11-25T09:37:06.026Z,88.85
2018-11-25T09:39:40.638Z,88.37
2018-11-25T09:42:15.390Z,88.27
2018-11-25T09:44:50.251Z,88.33
2018-11-25T09:47:24.606Z,88.61
2018-11-25T09:49:59.146Z,88.31
2018-11-25T09:52:33.843Z,89.07
2018-11-25T09:55:10.520Z,89.30
2018-11-25T09:57:48.489Z,89.72
2018-11-25T10:00:25.277Z,90.46
2018-11-25T10:02:59.807Z,90.64
2018-11-25T10:05:35.399Z,90.75
2018-11-25T10:08:11.148Z,90.49
2018-11-25T10:10:52.471Z,90.12
2018-11-25T10:13:20.885Z,90.31
2018-11-25T10:15:55.167Z,90.14
2018-11-25T10:18:29.736Z,90.58
2018-11-25T10:21:04.231Z,90.69
2018-11-25T10:23:40.487Z,90.41
2018-11-25T10:26:15.392Z,90.58
2018-11-25T10:28:50.096Z,91.06
2018-11-25T10:31:24.902Z,91.33
2018-11-25T10:33:59.741Z,91.56
2018-11-25T10:36:34.674Z,91.69
2018-11-25T10:39:11.161Z,92.11
2018-11-25T10:41:45.714Z,91.48
2018-11-25T10:44:20.064Z,91.50
2018-11-25T10:47:21.380Z,91.11
2018-11-25T10:49:55.946Z,90.29
2018-11-25T10:55:29.485Z,89.94
2018-11-25T10:58:04.469Z,89.81
2018-11-25T11:00:44.557Z,89.09
2018-11-25T11:03:24.349Z,89.77
2018-11-25T11:06:05.198Z,89.78
2018-11-25T11:08:40.181Z,89.94
2018-11-25T11:11:15.182Z,90.21
2018-11-25T11:13:50.137Z,89.86
2018-11-25T11:16:25.507Z,89.87
2018-11-25T11:19:02.997Z,90.18
2018-11-25T11:21:37.974Z,90.20
2018-11-25T11:24:12.490Z,90.32
2018-11-25T11:26:47.195Z,90.41
2018-11-25T11:29:22.430Z,90.40
2018-11-25T11:31:57.202Z,90.25
2018-11-25T11:34:31.870Z,89.67
2018-11-25T11:37:06.977Z,89.89
2018-11-25T11:39:41.518Z,89.92
2018-11-25T11:42:16.549Z,89.79
2018-11-25T11:44:51.151Z,90.00
2018-11-25T11:47:26.081Z,90.33
2018-11-25T11:50:00.346Z,90.29
2018-11-25T11:52:38.049Z,90.22
2018-11-25T11:55:14.551Z,90.29
2018-11-25T11:57:48.942Z,90.91
2018-11-25T12:00:28.185Z,90.85
2018-11-25T12:03:02.573Z,90.57
2018-11-25T12:05:37.256Z,90.89
2018-11-25T12:08:13.001Z,90.53
2018-11-25T12:10:47.841Z,90.85
2018-11-25T12:13:22.329Z,91.33
2018-11-25T12:15:56.986Z,91.66
2018-11-25T12:18:31.501Z,91.14
2018-11-25T12:21:06.349Z,91.64
2018-11-25T12:23:41.229Z,91.58
2018-11-25T12:26:18.086Z,92.06
2018-11-25T12:28:52.369Z,92.03
2018-11-25T12:31:26.868Z,91.91
2018-11-25T12:34:01.399Z,91.74
2018-11-25T12:36:35.928Z,90.55
2018-11-25T12:39:11.023Z,90.61
2018-11-25T12:41:46.090Z,91.02
2018-11-25T12:44:20.510Z,91.12
2018-11-25T12:46:55.128Z,91.65
2018-11-25T12:49:29.750Z,91.06
2018-11-25T12:52:04.321Z,90.52
2018-11-25T12:54:38.728Z,90.51
2018-11-25T12:57:13.364Z,90.60
2018-11-25T12:59:48.349Z,90.17
2018-11-25T13:02:23.797Z,89.16
2018-11-25T13:04:59.878Z,89.41
2018-11-25T13:07:35.120Z,89.83
2018-11-25T13:10:10.948Z,89.84
2018-11-25T13:12:46.105Z,90.02
2018-11-25T13:15:20.814Z,89.66
2018-11-25T13:17:55.812Z,89.99
2018-11-25T13:20:30.378Z,89.44
2018-11-25T13:23:05.341Z,88.62
2018-11-25T13:25:39.889Z,89.70
2018-11-25T13:28:14.762Z,90.31
2018-11-25T13:30:49.225Z,90.68
2018-11-25T13:33:24.025Z,90.39
2018-11-25T13:35:58.706Z,90.45
2018-11-25T13:38:33.278Z,90.28
2018-11-25T13:41:07.666Z,90.21
2018-11-25T13:43:42.076Z,90.20
2018-11-25T13:46:16.394Z,89.93
2018-11-25T13:48:50.906Z,90.34
2018-11-25T13:51:25.760Z,89.61
2018-11-25T13:54:04.655Z,90.50
2018-11-25T13:56:38.522Z,90.15
2018-11-25T13:59:13.574Z,90.51
2018-11-25T14:01:47.966Z,90.53
2018-11-25T14:04:22.350Z,90.82
2018-11-25T14:07:03.240Z,90.82
2018-11-25T14:09:38.079Z,90.89
2018-11-25T14:12:12.493Z,90.60
2018-11-25T14:14:46.881Z,90.43
2018-11-25T14:17:21.277Z,90.57
2018-11-25T14:19:55.881Z,90.57
2018-11-25T14:22:30.219Z,90.15
2018-11-25T14:25:11.744Z,90.48
2018-11-25T14:27:48.027Z,91.02
2018-11-25T14:30:27.398Z,90.92
2018-11-25T14:33:02.547Z,91.03
2018-11-25T14:35:37.343Z,91.01
2018-11-25T14:38:11.843Z,91.29
2018-11-25T14:40:46.661Z,91.25
2018-11-25T14:43:21.729Z,90.81
2018-11-25T14:45:56.656Z,90.51
2018-11-25T14:48:31.497Z,91.31
2018-11-25T14:51:06.521Z,91.38
2018-11-25T14:53:41.247Z,91.77
2018-11-25T14:56:16.357Z,91.93
2018-11-25T14:58:51.879Z,91.75
2018-11-25T15:01:27.200Z,91.64
2018-11-25T15:04:02.592Z,91.84
2018-11-25T15:06:37.031Z,91.65
2018-11-25T15:09:11.599Z,91.27
2018-11-25T15:11:45.935Z,90.85
2018-11-25T15:14:20.554Z,90.25
2018-11-25T15:16:55.129Z,90.40
2018-11-25T15:19:29.570Z,89.70
2018-11-25T15:22:04.227Z,90.21
2018-11-25T15:24:38.760Z,90.51
2018-11-25T15:27:13.354Z,90.72
2018-11-25T15:29:47.980Z,91.00
2018-11-25T15:32:22.484Z,91.07
2018-11-25T15:34:57.290Z,91.18
2018-11-25T15:37:32.156Z,91.15
2018-11-25T15:40:31.749Z,91.17
2018-11-25T15:43:07.906Z,91.51
2018-11-25T15:45:42.950Z,91.43
2018-11-25T15:48:22.165Z,91.42
2018-11-25T15:50:56.533Z,91.67
2018-11-25T15:53:31.002Z,91.97
2018-11-25T15:56:09.120Z,92.19
2018-11-25T15:58:43.821Z,92.14
2018-11-25T16:01:18.691Z,92.26
2018-11-25T16:03:53.160Z,91.83
2018-11-25T16:06:29.773Z,91.80
2018-11-25T16:09:05.308Z,91.69
2018-11-25T16:11:40.066Z,92.08
2018-11-25T16:14:15.187Z,91.24
2018-11-25T16:16:50.194Z,91.38
2018-11-25T16:19:24.836Z,91.43
2018-11-25T16:21:59.741Z,90.86
2018-11-25T16:24:34.281Z,91.01
2018-11-25T16:27:08.994Z,91.18
2018-11-25T16:29:43.737Z,91.02
2018-11-25T16:32:18.010Z,91.28
2018-11-25T16:34:52.491Z,91.39
2018-11-25T16:37:27.173Z,91.62
2018-11-25T16:40:02.057Z,91.85
2018-11-25T16:42:36.813Z,92.08
2018-11-25T16:45:13.241Z,92.58
2018-11-25T16:47:47.549Z,93.01
2018-11-25T16:50:25.327Z,92.59
2018-11-25T16:52:56.693Z,92.65
2018-11-25T16:55:31.317Z,92.73
2018-11-25T16:58:06.920Z,92.50
2018-11-25T17:00:41.932Z,92.69
2018-11-25T17:03:16.441Z,92.59
2018-11-25T17:05:52.968Z,93.13
2018-11-25T17:08:34.739Z,93.15
2018-11-25T17:11:09.517Z,92.77
2018-11-25T17:13:44.085Z,92.67
2018-11-25T17:16:18.963Z,92.61
2018-11-25T17:18:53.296Z,92.29
2018-11-25T17:21:28.125Z,92.67
2018-11-25T17:24:02.849Z,92.60
2018-11-25T17:26:38.720Z,92.73
2018-11-25T17:29:13.372Z,92.93
2018-11-25T17:31:48.116Z,92.87
2018-11-25T17:34:22.845Z,92.55
2018-11-25T17:36:58.001Z,92.83
2018-11-25T17:39:32.715Z,92.35
2018-11-25T17:42:07.950Z,92.00
2018-11-25T17:44:43.006Z,91.65
2018-11-25T17:47:17.345Z,91.68
2018-11-25T17:49:52.438Z,91.85
2018-11-25T17:52:27.322Z,91.71
2018-11-25T17:55:02.071Z,91.99
2018-11-25T17:57:37.434Z,92.12
2018-11-25T18:00:19.054Z,91.94
2018-11-25T18:02:53.609Z,92.04
2018-11-25T18:05:28.579Z,91.74
2018-11-25T18:08:02.966Z,91.92
2018-11-25T18:10:37.568Z,92.32
2018-11-25T18:13:12.186Z,92.31
2018-11-25T18:15:47.391Z,92.22
2018-11-25T18:18:33.290Z,91.96
2018-11-25T18:21:09.994Z,92.25
2018-11-25T18:23:44.562Z,92.21
2018-11-25T18:26:20.158Z,92.09
2018-11-25T18:28:54.520Z,90.60
2018-11-25T18:31:28.829Z,91.48
2018-11-25T18:34:03.535Z,91.46
2018-11-25T18:36:38.274Z,91.78
2018-11-25T18:39:13.333Z,91.30
2018-11-25T18:41:47.903Z,91.01
2018-11-25T18:44:22.733Z,91.36
2018-11-25T18:46:57.910Z,91.69
2018-11-25T18:49:33.051Z,91.72
2018-11-25T18:52:07.901Z,92.13
2018-11-25T18:54:46.389Z,91.79
2018-11-25T18:57:21.481Z,91.70
2018-11-25T18:59:56.114Z,91.55
2018-11-25T19:02:40.976Z,91.60
2018-11-25T19:05:15.949Z,92.13
2018-11-25T19:07:50.329Z,92.16
2018-11-25T19:10:25.382Z,92.19
2018-11-25T19:13:00.305Z,92.08
2018-11-25T19:15:35.449Z,92.21
2018-11-25T19:18:10.371Z,92.15
2018-11-25T19:20:45.261Z,92.11
2018-11-25T19:23:19.990Z,91.94
2018-11-25T19:25:54.849Z,92.22
2018-11-25T19:28:29.810Z,92.70
2018-11-25T19:31:04.467Z,92.57
2018-11-25T19:33:38.902Z,92.45
2018-11-25T19:36:14.985Z,92.07
2018-11-25T19:38:49.905Z,91.94
2018-11-25T19:41:24.311Z,92.22
2018-11-25T19:43:58.741Z,92.11
2018-11-25T19:46:33.698Z,91.70
2018-11-25T19:49:08.670Z,91.75
2018-11-25T19:51:43.279Z,91.87
2018-11-25T19:54:18.437Z,92.02
2018-11-25T19:56:53.065Z,92.16
2018-11-25T19:59:27.512Z,92.56
2018-11-25T20:02:02.158Z,92.42
2018-11-25T20:04:37.411Z,92.03
2018-11-25T20:07:12.575Z,91.97
2018-11-25T20:09:47.326Z,91.98
2018-11-25T20:12:25.833Z,92.28
2018-11-25T20:15:01.059Z,92.04
2018-11-25T20:17:36.553Z,92.04
2018-11-25T20:20:16.837Z,91.75
2018-11-25T20:22:52.673Z,91.17
2018-11-25T20:25:27.918Z,91.48
2018-11-25T20:28:02.288Z,91.66
2018-11-25T20:30:36.613Z,92.00
2018-11-25T20:33:20.405Z,91.59
2018-11-25T20:35:54.921Z,91.97
2018-11-25T20:38:35.189Z,91.65
2018-11-25T20:41:10.677Z,91.49
2018-11-25T20:43:45.270Z,91.70
2018-11-25T20:46:25.753Z,91.46
2018-11-25T20:49:00.870Z,91.41
2018-11-25T20:53:45.106Z,90.79
2018-11-25T20:56:19.805Z,91.05
2018-11-25T20:58:54.965Z,91.35
2018-11-25T21:01:29.537Z,91.30
2018-11-25T21:04:04.624Z,91.43
2018-11-25T21:06:39.638Z,91.48
2018-11-25T21:09:14.830Z,91.33
2018-11-25T21:11:50.174Z,91.08
2018-11-25T21:14:25.226Z,90.92
2018-11-25T21:16:59.645Z,91.18
2018-11-25T21:19:33.946Z,91.37
2018-11-25T21:22:08.305Z,91.18
2018-11-25T21:24:42.761Z,91.36
2018-11-25T21:27:19.574Z,91.29
2018-11-25T21:29:58.203Z,91.74
2018-11-25T21:32:33.091Z,91.37
2018-11-25T21:35:09.187Z,91.37
2018-11-25T21:37:44.198Z,91.36
2018-11-25T21:40:21.990Z,91.18
2018-11-25T21:42:57.630Z,91.33
2018-11-25T21:45:32.382Z,91.51
2018-11-25T21:48:08.314Z,91.60
2018-11-25T21:50:43.465Z,91.56
2018-11-25T21:53:18.158Z,91.67
2018-11-25T21:55:52.736Z,91.65
2018-11-25T21:58:28.838Z,91.83
2018-11-25T22:01:02.433Z,91.90
2018-11-25T22:03:37.042Z,91.94
2018-11-25T22:06:11.553Z,91.69
2018-11-25T22:08:46.413Z,91.29
2018-11-25T22:11:30.228Z,91.37
2018-11-25T22:14:05.291Z,91.42
2018-11-25T22:16:40.134Z,91.21
2018-11-25T22:19:14.590Z,91.11
2018-11-25T22:21:48.865Z,91.31
2018-11-25T22:24:23.849Z,91.01
2018-11-25T22:26:59.566Z,91.16
2018-11-25T22:29:33.845Z,91.24
2018-11-25T22:32:08.476Z,91.31
2018-11-25T22:34:42.998Z,91.33
2018-11-25T22:37:17.589Z,91.24
2018-11-25T22:39:52.678Z,91.68
2018-11-25T22:42:26.969Z,90.98
2018-11-25T22:45:01.499Z,90.97
2018-11-25T22:47:36.737Z,90.45
2018-11-25T22:50:17.501Z,90.76
2018-11-25T22:52:52.006Z,90.99
2018-11-25T22:55:27.510Z,91.15
2018-11-25T22:58:01.875Z,91.34
2018-11-25T23:00:38.098Z,91.25
2018-11-25T23:03:12.797Z,91.26
2018-11-25T23:05:58.859Z,91.51
2018-11-25T23:08:34.385Z,91.35
2018-11-25T23:11:09.076Z,91.18
2018-11-25T23:13:43.976Z,90.78
2018-11-25T23:16:18.746Z,90.61
2018-11-25T23:18:53.453Z,90.39
2018-11-25T23:21:27.735Z,90.76
2018-11-25T23:24:02.199Z,91.16
2018-11-25T23:26:36.717Z,91.29
2018-11-25T23:29:11.457Z,91.48
2018-11-25T23:31:46.417Z,91.17
2018-11-25T23:34:21.374Z,91.32
2018-11-25T23:36:56.014Z,90.95
2018-11-25T23:39:30.809Z,90.54
2018-11-25T23:42:05.727Z,90.76
2018-11-25T23:44:40.136Z,90.85
2018-11-25T23:47:15.648Z,91.15
2018-11-25T23:49:50.254Z,91.03
2018-11-25T23:52:24.673Z,90.68
2018-11-25T23:54:59.693Z,90.92
2018-11-25T23:57:34.941Z,90.87
